Time;durP1;ratioP1;P1;durP2;ratioP2;P2;SDS_P1;SDS_P2;PMS_P1;PMS_P2;Temp;Humidity;BMP_temperature;BMP_pressure;BME280_temperature;BME280_humidity;BME280_pressure;Samples;Min_cycle;Max_cycle;Signal;HPM_P1;HPM_P2
2023/02/08 00:00:47;;;;;;;20.60;11.57;;;;;;;-3.96;53.72;96476.13;5064862;28;20036;-76
2023/02/08 00:03:13;;;;;;;25.30;10.73;;;;;;;-3.92;53.84;96472.53;5066627;28;20024;-75
2023/02/08 00:05:38;;;;;;;21.80;11.93;;;;;;;-3.94;53.82;96476.63;5066178;28;20380;-77
2023/02/08 00:08:04;;;;;;;25.33;11.60;;;;;;;-3.92;53.38;96479.78;5066569;28;20032;-75
2023/02/08 00:10:30;;;;;;;21.13;11.53;;;;;;;-3.94;53.67;96482.78;5068494;28;20039;-74
2023/02/08 00:12:55;;;;;;;19.00;11.10;;;;;;;-3.93;53.42;96495.13;5065998;28;20575;-76
2023/02/08 00:15:22;;;;;;;20.20;10.73;;;;;;;-3.89;53.28;96492.63;5067251;28;20044;-76
2023/02/08 00:17:47;;;;;;;22.27;11.13;;;;;;;-3.92;53.59;96495.91;5064914;28;20032;-75
2023/02/08 00:20:14;;;;;;;20.13;10.10;;;;;;;-4.02;53.75;96492.38;5049492;28;20042;-75
2023/02/08 00:22:39;;;;;;;20.37;11.43;;;;;;;-4.08;54.00;96492.78;5064098;28;20208;-74
2023/02/08 00:25:05;;;;;;;20.10;10.70;;;;;;;-4.09;53.80;96489.31;5066156;28;20048;-74
2023/02/08 00:27:31;;;;;;;17.07;11.17;;;;;;;-4.08;53.54;96490.09;5064449;28;20968;-74
2023/02/08 00:29:58;;;;;;;21.13;11.17;;;;;;;-3.96;53.74;96503.78;5067305;28;20029;-74
2023/02/08 00:32:23;;;;;;;19.57;10.90;;;;;;;-3.92;53.47;96512.03;5066854;28;20071;-75
2023/02/08 00:34:48;;;;;;;18.93;10.23;;;;;;;-3.98;53.94;96503.31;5066402;28;20165;-76
2023/02/08 00:37:14;;;;;;;19.77;11.00;;;;;;;-4.02;53.60;96508.47;5071219;28;20044;-77
2023/02/08 00:39:39;;;;;;;21.53;11.17;;;;;;;-3.97;53.62;96517.53;5067257;28;20031;-76
2023/02/08 00:42:05;;;;;;;20.47;10.70;;;;;;;-3.93;53.68;96516.63;5049664;28;20017;-75
2023/02/08 00:44:30;;;;;;;23.17;12.57;;;;;;;-3.91;53.55;96524.38;5065588;28;20028;-74
2023/02/08 00:46:55;;;;;;;20.17;10.90;;;;;;;-3.87;53.71;96526.16;5067590;28;20131;-74
2023/02/08 00:49:21;;;;;;;20.03;10.70;;;;;;;-3.84;53.42;96513.97;5065590;28;20040;-74
2023/02/08 00:51:46;;;;;;;20.77;11.30;;;;;;;-3.66;52.90;96529.13;5066797;28;20555;-75
2023/02/08 00:54:17;;;;;;;22.80;11.30;;;;;;;-3.58;52.48;96522.22;5048281;28;20112;-76
2023/02/08 00:56:42;;;;;;;17.30;10.73;;;;;;;-3.44;52.14;96533.69;5062950;28;20046;-74
2023/02/08 00:59:07;;;;;;;22.93;11.80;;;;;;;-3.39;52.20;96530.84;5065624;28;20033;-75
2023/02/08 01:01:33;;;;;;;20.07;11.37;;;;;;;-3.36;51.71;96534.84;5065014;28;20086;-75
2023/02/08 01:03:58;;;;;;;22.07;11.83;;;;;;;-3.30;51.83;96530.91;5065630;28;20455;-75
2023/02/08 01:06:24;;;;;;;18.47;11.57;;;;;;;-3.28;51.79;96528.69;5068643;28;20457;-75
2023/02/08 01:08:49;;;;;;;22.97;12.23;;;;;;;-3.33;51.81;96536.91;5066737;28;20036;-75
2023/02/08 01:11:18;;;;;;;21.83;12.07;;;;;;;-3.35;51.97;96539.13;5064618;28;20166;-75
2023/02/08 01:13:44;;;;;;;21.30;12.50;;;;;;;-3.43;52.56;96535.28;5064206;28;20064;-75
2023/02/08 01:16:12;;;;;;;21.53;12.47;;;;;;;-3.42;52.33;96530.69;5065297;28;20107;-76
2023/02/08 01:18:39;;;;;;;21.10;12.47;;;;;;;-3.47;52.92;96529.72;5063120;28;20028;-77
2023/02/08 01:21:07;;;;;;;24.03;13.03;;;;;;;-3.45;53.04;96531.31;5064780;28;20552;-76
2023/02/08 01:23:33;;;;;;;21.00;11.17;;;;;;;-3.45;53.17;96536.69;5064655;28;20032;-76
2023/02/08 01:25:58;;;;;;;23.07;12.77;;;;;;;-3.49;53.05;96523.88;5065257;28;20033;-75
2023/02/08 01:28:24;;;;;;;20.60;12.80;;;;;;;-3.48;52.95;96530.03;5065112;28;20199;-75
2023/02/08 01:30:49;;;;;;;22.00;12.20;;;;;;;-3.44;52.70;96535.56;5063897;28;20028;-76
2023/02/08 01:33:14;;;;;;;22.20;12.43;;;;;;;-3.40;52.65;96531.19;5065857;28;20036;-74
2023/02/08 01:35:40;;;;;;;23.30;11.57;;;;;;;-3.40;52.61;96534.66;5064369;28;20119;-73
2023/02/08 01:38:05;;;;;;;22.53;12.33;;;;;;;-3.35;52.77;96536.44;5066166;28;20024;-75
2023/02/08 01:40:31;;;;;;;20.57;11.60;;;;;;;-3.33;52.56;96526.94;5064355;28;20178;-76
2023/02/08 01:42:56;;;;;;;20.53;12.17;;;;;;;-3.34;52.46;96538.00;5066270;28;20024;-75
2023/02/08 01:45:30;;;;;;;25.60;12.93;;;;;;;-3.34;52.48;96536.09;5062965;28;20347;-76
2023/02/08 01:48:01;;;;;;;;;;;;;;;-3.34;52.50;96535.31;5063651;28;20029;-75
2023/02/08 01:50:30;;;;;;;24.23;11.33;;;;;;;-3.41;52.89;96527.69;5065714;28;20607;-76
2023/02/08 01:52:55;;;;;;;20.13;11.77;;;;;;;-3.42;53.02;96533.38;5062899;28;20032;-75
2023/02/08 01:55:26;;;;;;;23.17;12.50;;;;;;;-3.40;52.82;96540.03;5064570;28;20037;-74
2023/02/08 01:57:53;;;;;;;23.73;12.60;;;;;;;-3.33;52.69;96540.38;5062709;28;20517;-75
2023/02/08 02:00:21;;;;;;;24.37;12.53;;;;;;;-3.32;52.65;96543.88;5065514;28;20110;-76
2023/02/08 02:02:47;;;;;;;26.20;13.40;;;;;;;-3.30;52.59;96547.84;5065018;28;20028;-75
2023/02/08 02:05:15;;;;;;;21.90;13.03;;;;;;;-3.27;52.76;96551.81;5065252;28;20031;-74
2023/02/08 02:07:40;;;;;;;24.57;13.13;;;;;;;-3.22;52.64;96547.09;5064334;28;20108;-75
2023/02/08 02:10:09;;;;;;;21.10;12.60;;;;;;;-3.22;52.62;96546.28;5062694;28;20095;-74
2023/02/08 02:12:36;;;;;;;24.30;12.03;;;;;;;-3.24;52.74;96548.50;5047827;28;20487;-75
2023/02/08 02:15:02;;;;;;;23.37;12.33;;;;;;;-3.22;52.99;96548.97;5062207;28;20044;-74
2023/02/08 02:17:27;;;;;;;24.43;13.37;;;;;;;-3.26;53.20;96559.59;5064262;28;20036;-74
2023/02/08 02:20:14;;;;;;;22.53;13.33;;;;;;;-3.37;53.54;96560.16;5062525;28;20105;-74
2023/02/08 02:22:45;;;;;;;23.77;12.10;;;;;;;-3.50;53.95;96554.53;5064409;28;20062;-75
2023/02/08 02:25:19;;;;;;;22.93;12.37;;;;;;;-3.49;54.43;96556.13;5065264;28;20056;-75
2023/02/08 02:28:06;;;;;;;26.07;13.67;;;;;;;-3.46;54.43;96562.78;5063457;28;20439;-73
2023/02/08 02:30:59;;;;;;;23.50;12.30;;;;;;;-3.54;54.92;96567.00;5065293;28;20502;-75
2023/02/08 02:33:36;;;;;;;25.43;12.83;;;;;;;-3.61;55.45;96566.66;5064806;28;20090;-75
2023/02/08 02:36:08;;;;;;;24.53;12.57;;;;;;;-3.63;55.41;96574.22;5062017;28;20058;-76
2023/02/08 02:38:42;;;;;;;26.10;13.67;;;;;;;-3.56;56.02;96581.84;5064049;28;20108;-76
2023/02/08 02:44:47;;;;;;;25.03;13.87;;;;;;;-3.59;56.43;96571.72;5063870;28;20431;-75
2023/02/08 02:47:41;;;;;;;22.53;12.93;;;;;;;-3.57;56.78;96580.25;5065150;28;20090;-75
2023/02/08 02:50:06;;;;;;;22.07;12.77;;;;;;;-3.50;56.71;96577.94;5053231;28;20072;-74
2023/02/08 02:52:40;;;;;;;25.67;13.17;;;;;;;-3.43;56.39;96575.63;5064637;28;20083;-75
2023/02/08 02:55:15;;;;;;;;;;;;;;;-3.36;56.15;96577.88;5063973;28;20035;-75
2023/02/08 02:57:43;;;;;;;23.10;12.47;;;;;;;-3.36;56.37;96578.66;5045406;28;19962;-74
2023/02/08 03:00:10;;;;;;;25.87;13.53;;;;;;;-3.29;56.56;96584.41;5065946;28;20188;-75
2023/02/08 03:02:36;;;;;;;26.90;13.97;;;;;;;-3.25;56.27;96579.19;5063008;28;20470;-76
2023/02/08 03:05:01;;;;;;;30.77;13.47;;;;;;;-3.21;56.23;96580.97;5063731;28;20088;-76
2023/02/08 03:07:52;;;;;;;24.50;13.20;;;;;;;-3.19;56.31;96585.25;5063381;28;20436;-74
2023/02/08 03:10:23;;;;;;;28.37;14.67;;;;;;;-3.17;56.31;96596.47;5066799;28;20028;-76
2023/02/08 03:12:58;;;;;;;27.60;15.17;;;;;;;-3.17;56.34;96594.59;5065067;28;20024;-74
2023/02/08 03:15:32;;;;;;;29.70;15.53;;;;;;;-3.16;55.80;96596.16;5061616;28;20123;-74
2023/02/08 03:18:37;;;;;;;25.60;14.23;;;;;;;-3.13;55.71;96592.09;5065260;28;20827;-76
2023/02/08 03:21:34;;;;;;;23.93;14.27;;;;;;;-3.15;55.65;96591.56;5065866;28;20097;-74
2023/02/08 03:24:17;;;;;;;24.70;14.50;;;;;;;-3.06;55.04;96595.13;5066846;28;20035;-76
2023/02/08 03:26:53;;;;;;;26.45;15.52;;;;;;;-3.09;54.79;96593.84;5068709;28;20036;-75
2023/02/08 03:29:37;;;;;;;27.40;15.33;;;;;;;-3.11;54.80;96592.56;5066398;28;20086;-75
2023/02/08 03:32:11;;;;;;;28.70;14.93;;;;;;;-3.07;54.62;96590.84;5067278;28;20486;-75
2023/02/08 03:35:00;;;;;;;26.20;16.10;;;;;;;-3.06;54.52;96598.59;5067312;28;20217;-75
2023/02/08 03:37:29;;;;;;;29.97;15.73;;;;;;;-3.06;54.27;96587.84;5066565;28;20072;-76
2023/02/08 03:40:03;;;;;;;26.43;14.83;;;;;;;-3.05;54.70;96588.63;5066600;28;20023;-75
2023/02/08 03:42:29;;;;;;;28.60;15.32;;;;;;;-3.10;55.04;96588.75;5066224;28;20475;-76
2023/02/08 03:44:58;;;;;;;28.20;15.40;;;;;;;-3.23;55.06;96583.16;5065528;28;20082;-75
2023/02/08 03:47:27;;;;;;;30.83;16.47;;;;;;;-3.18;55.45;96594.91;5066701;28;20028;-76
2023/02/08 03:49:55;;;;;;;31.73;16.97;;;;;;;-3.24;55.33;96583.47;5064638;28;20120;-75
2023/02/08 03:52:22;;;;;;;32.00;16.90;;;;;;;-3.26;55.37;96583.00;5066773;28;20107;-75
2023/02/08 03:54:50;;;;;;;33.67;16.23;;;;;;;-3.25;54.89;96581.91;5065275;28;20090;-75
2023/02/08 03:57:18;;;;;;;37.40;18.70;;;;;;;-3.25;54.56;96598.81;5067911;28;20020;-77
2023/02/08 03:59:49;;;;;;;39.30;19.17;;;;;;;-3.32;54.45;96589.63;5068930;28;20515;-75
2023/02/08 04:02:18;;;;;;;28.17;15.23;;;;;;;-3.30;54.04;96590.88;5065283;28;20104;-76
2023/02/08 04:04:46;;;;;;;27.27;14.80;;;;;;;-3.34;54.28;96589.91;5067199;28;20032;-75
2023/02/08 04:07:12;;;;;;;30.97;15.90;;;;;;;-3.33;54.35;96596.06;5064584;28;20094;-74
2023/02/08 04:09:37;;;;;;;31.00;15.43;;;;;;;-3.38;54.49;96594.31;5068117;28;20033;-75
2023/02/08 04:12:03;;;;;;;28.77;15.13;;;;;;;-3.41;54.13;96603.00;5048596;28;20020;-75
2023/02/08 04:14:29;;;;;;;28.13;15.13;;;;;;;-3.44;53.96;96608.19;5065937;28;20392;-74
2023/02/08 04:16:54;;;;;;;29.97;15.83;;;;;;;-3.50;54.22;96604.81;5049010;28;20576;-76
2023/02/08 04:19:20;;;;;;;32.47;16.10;;;;;;;-3.59;54.26;96603.97;5065001;28;20475;-77
2023/02/08 04:21:45;;;;;;;28.23;15.23;;;;;;;-3.62;54.41;96602.69;5067850;28;20095;-75
2023/02/08 04:24:11;;;;;;;26.60;14.57;;;;;;;-3.65;53.88;96600.63;5064413;28;20721;-75
2023/02/08 04:26:36;;;;;;;26.20;13.90;;;;;;;-3.68;53.75;96603.09;5066454;28;20598;-77
2023/02/08 04:29:01;;;;;;;26.10;12.97;;;;;;;-3.65;53.58;96605.19;5065793;28;20457;-76
2023/02/08 04:31:27;;;;;;;22.93;12.63;;;;;;;-3.62;52.52;96607.25;5049025;28;20039;-76
2023/02/08 04:33:52;;;;;;;23.77;11.77;;;;;;;-3.72;52.63;96615.59;5065011;28;20097;-76
2023/02/08 04:36:18;;;;;;;21.60;12.17;;;;;;;-3.78;52.71;96621.06;5064938;28;20090;-75
2023/02/08 04:38:43;;;;;;;20.17;11.57;;;;;;;-3.77;51.86;96611.91;5067317;28;20631;-76
2023/02/08 04:41:09;;;;;;;19.83;10.90;;;;;;;-3.79;51.97;96618.66;5047533;28;20414;-74
2023/02/08 04:43:35;;;;;;;21.93;12.00;;;;;;;-3.75;51.62;96615.06;5066202;28;20099;-76
2023/02/08 04:46:00;;;;;;;19.57;10.83;;;;;;;-3.70;51.24;96610.69;5063979;28;20590;-74
2023/02/08 04:48:26;;;;;;;22.63;11.20;;;;;;;-3.75;51.21;96608.91;5065337;28;20027;-74
2023/02/08 04:50:55;;;;;;;23.10;11.97;;;;;;;-3.78;51.21;96621.06;5065881;28;20033;-75
2023/02/08 04:53:21;;;;;;;20.93;11.53;;;;;;;-3.80;51.15;96627.84;5065170;28;20028;-74
2023/02/08 04:55:46;;;;;;;20.63;10.90;;;;;;;-3.82;51.46;96630.03;5068293;28;20036;-76
2023/02/08 04:58:12;;;;;;;20.03;11.40;;;;;;;-3.90;51.57;96631.56;5065684;28;20078;-76
2023/02/08 05:00:38;;;;;;;17.93;11.33;;;;;;;-3.96;52.01;96640.00;5067461;28;20032;-75
2023/02/08 05:03:03;;;;;;;20.73;11.00;;;;;;;-4.02;51.80;96642.81;5063684;28;20439;-76
2023/02/08 05:05:29;;;;;;;19.83;11.80;;;;;;;-4.23;52.20;96628.25;5065502;28;20029;-76
2023/02/08 05:07:54;;;;;;;23.23;12.30;;;;;;;-4.08;52.53;96656.66;5065460;28;20032;-75
2023/02/08 05:10:20;;;;;;;22.07;11.57;;;;;;;-4.07;52.74;96664.44;5066690;28;20453;-75
2023/02/08 05:12:45;;;;;;;25.40;12.30;;;;;;;-4.13;52.66;96668.31;5065841;28;20074;-76
2023/02/08 05:15:10;;;;;;;21.67;12.10;;;;;;;-4.11;52.87;96668.81;5065997;28;20028;-77
2023/02/08 05:17:37;;;;;;;21.00;11.37;;;;;;;-4.12;52.84;96674.50;5066667;28;20032;-74
2023/02/08 05:20:03;;;;;;;21.67;11.37;;;;;;;-4.15;52.96;96670.50;5063533;28;20047;-75
2023/02/08 05:22:29;;;;;;;22.17;11.97;;;;;;;-4.15;52.68;96673.19;5064353;28;20094;-76
2023/02/08 05:24:54;;;;;;;25.27;12.90;;;;;;;-4.34;52.85;96654.50;5064812;28;20021;-75
2023/02/08 05:27:19;;;;;;;20.10;11.50;;;;;;;-4.21;53.02;96676.28;5066460;28;20031;-76
2023/02/08 05:29:45;;;;;;;21.87;11.13;;;;;;;-4.22;52.72;96675.47;5065180;28;20029;-74
2023/02/08 05:32:11;;;;;;;19.50;10.47;;;;;;;-4.17;52.69;96674.59;5064599;28;20023;-77
2023/02/08 05:34:37;;;;;;;20.40;11.47;;;;;;;-4.20;52.61;96670.59;5047891;28;20035;-76
2023/02/08 05:37:02;;;;;;;24.50;13.20;;;;;;;-4.17;52.79;96680.75;5063582;28;20024;-77
2023/02/08 05:39:28;;;;;;;24.50;13.23;;;;;;;-4.19;52.62;96682.91;5064956;28;20021;-76
2023/02/08 05:41:53;;;;;;;25.23;13.60;;;;;;;-4.16;53.13;96690.41;5065091;28;20025;-76
2023/02/08 05:44:19;;;;;;;25.00;13.83;;;;;;;-4.09;53.13;96700.72;5067902;28;20458;-76
2023/02/08 05:46:44;;;;;;;25.30;13.27;;;;;;;-4.06;52.74;96697.47;5065186;28;20094;-76
2023/02/08 05:49:10;;;;;;;25.20;13.17;;;;;;;-4.04;52.72;96704.13;5064664;28;20028;-75
2023/02/08 05:51:35;;;;;;;25.70;15.90;;;;;;;-4.03;53.23;96699.53;5066722;28;20032;-76
2023/02/08 05:54:00;;;;;;;25.63;14.17;;;;;;;-3.97;52.66;96702.91;5067322;28;20131;-74
2023/02/08 05:56:27;;;;;;;29.43;16.03;;;;;;;-3.92;52.54;96706.28;5047628;28;20078;-75
2023/02/08 05:58:52;;;;;;;28.27;14.53;;;;;;;-3.81;52.36;96706.88;5064372;28;20024;-75
2023/02/08 06:01:18;;;;;;;27.43;14.77;;;;;;;-3.76;52.03;96702.19;5047945;28;20111;-75
2023/02/08 06:03:44;;;;;;;33.33;20.20;;;;;;;-3.76;52.13;96710.25;5063945;28;20052;-75
2023/02/08 06:06:12;;;;;;;50.27;22.90;;;;;;;-3.71;51.64;96695.91;5064562;28;20104;-74
2023/02/08 06:08:38;;;;;;;50.90;24.37;;;;;;;-3.68;51.61;96694.50;5064582;28;20024;-75
2023/02/08 06:11:04;;;;;;;57.70;26.50;;;;;;;-3.66;51.56;96698.50;5065300;28;20097;-75
2023/02/08 06:13:30;;;;;;;57.97;26.77;;;;;;;-3.59;51.72;96695.38;5065433;28;20449;-76
2023/02/08 06:15:55;;;;;;;61.83;27.10;;;;;;;-3.57;51.30;96687.78;5062683;28;20064;-75
2023/02/08 06:18:21;;;;;;;56.27;26.57;;;;;;;-3.45;51.10;96692.63;5063697;28;20032;-76
2023/02/08 06:20:46;;;;;;;47.67;24.00;;;;;;;-3.43;51.03;96701.22;5062360;28;20298;-76
2023/02/08 06:23:12;;;;;;;36.80;21.50;;;;;;;-3.38;51.10;96701.91;5064134;28;20136;-75
2023/02/08 06:25:37;;;;;;;39.63;19.73;;;;;;;-3.28;50.90;96706.22;5062362;28;20555;-74
2023/02/08 06:28:03;;;;;;;37.27;20.40;;;;;;;-3.25;50.83;96702.94;5065247;28;20578;-74
2023/02/08 06:30:29;;;;;;;38.53;18.83;;;;;;;-3.18;51.00;96703.31;5064432;28;20539;-75
2023/02/08 06:32:54;;;;;;;32.27;18.53;;;;;;;-3.16;51.54;96722.63;5064430;28;20028;-75
2023/02/08 06:35:19;;;;;;;29.60;17.10;;;;;;;-3.14;51.41;96715.06;5065220;28;20103;-75
2023/02/08 06:37:45;;;;;;;28.43;16.17;;;;;;;-3.15;51.77;96718.03;5062149;28;20033;-75
2023/02/08 06:40:10;;;;;;;31.30;17.33;;;;;;;-3.10;51.63;96718.69;5065641;28;20504;-76
2023/02/08 06:42:36;;;;;;;33.30;17.93;;;;;;;-3.06;51.29;96718.91;5063288;28;20407;-76
2023/02/08 06:45:01;;;;;;;32.87;18.20;;;;;;;-3.04;51.35;96720.19;5063996;28;20652;-75
2023/02/08 06:47:27;;;;;;;43.15;21.35;;;;;;;-2.98;51.24;96728.94;5045343;28;20498;-75
2023/02/08 06:49:53;;;;;;;43.90;23.97;;;;;;;-2.86;50.75;96731.06;5065779;28;20461;-76
2023/02/08 06:52:18;;;;;;;43.87;22.37;;;;;;;-2.88;50.32;96730.56;5065431;28;20177;-76
2023/02/08 06:54:44;;;;;;;34.20;19.77;;;;;;;-2.86;49.91;96728.38;5063019;28;20028;-75
2023/02/08 06:57:11;;;;;;;34.43;19.17;;;;;;;-2.79;49.53;96716.06;5065279;28;20032;-75
2023/02/08 06:59:38;;;;;;;30.27;16.43;;;;;;;-2.74;48.59;96734.78;5061587;28;20154;-72
2023/02/08 07:02:03;;;;;;;24.57;13.17;;;;;;;-2.70;48.04;96737.66;5064187;28;20430;-77
2023/02/08 07:04:29;;;;;;;25.33;11.93;;;;;;;-2.62;47.71;96736.13;5063475;28;20024;-76
2023/02/08 07:06:55;;;;;;;22.50;12.30;;;;;;;-2.51;46.69;96738.25;5063815;28;20029;-77
2023/02/08 07:09:20;;;;;;;19.53;11.50;;;;;;;-2.43;46.34;96736.69;5062946;28;20032;-79
2023/02/08 07:11:45;;;;;;;18.37;10.77;;;;;;;-2.39;46.11;96734.97;5064397;28;20574;-77
2023/02/08 07:14:12;;;;;;;19.10;11.13;;;;;;;-2.25;45.43;96740.25;5063645;28;20025;-77
2023/02/08 07:16:38;;;;;;;21.33;11.73;;;;;;;-2.17;45.59;96759.19;5061734;28;20066;-76
2023/02/08 07:19:03;;;;;;;16.33;9.83;;;;;;;-2.12;45.62;96755.56;5064214;28;20078;-77
2023/02/08 07:21:29;;;;;;;20.50;11.23;;;;;;;-2.10;45.68;96752.53;5061536;28;20380;-77
2023/02/08 07:23:54;;;;;;;23.38;13.05;;;;;;;-1.90;46.68;96762.75;5046964;28;20109;-76
2023/02/08 07:26:20;;;;;;;26.45;13.48;;;;;;;-1.81;45.30;96766.28;5063936;28;20036;-78
2023/02/08 07:28:45;;;;;;;27.48;14.57;;;;;;;-1.72;45.30;96759.03;5065310;28;20041;-78
2023/02/08 07:31:13;;;;;;;27.45;15.30;;;;;;;-1.59;45.47;96760.00;5064882;28;20520;-77
2023/02/08 07:33:39;;;;;;;28.83;14.35;;;;;;;-1.48;45.43;96764.00;5062647;28;20028;-76
2023/02/08 07:36:05;;;;;;;28.17;14.77;;;;;;;-1.51;45.18;96770.00;5069402;28;20243;-77
2023/02/08 07:38:32;;;;;;;24.40;14.15;;;;;;;-1.51;45.12;96770.00;5063019;28;20028;-77
2023/02/08 07:41:05;;;;;;;26.20;13.10;;;;;;;-1.50;44.71;96771.59;5068418;28;20029;-77
2023/02/08 07:43:33;;;;;;;24.60;13.55;;;;;;;-1.42;44.76;96775.44;5062625;28;20111;-78
2023/02/08 07:46:14;;;;;;;26.75;14.85;;;;;;;-1.38;44.87;96768.28;5065825;28;20107;-77
2023/02/08 07:48:40;;;;;;;22.20;13.18;;;;;;;-1.23;44.68;96772.44;5048530;28;20044;-78
2023/02/08 07:51:05;;;;;;;23.25;13.13;;;;;;;-1.01;44.63;96785.78;5061326;28;20071;-78
2023/02/08 07:53:31;;;;;;;27.85;14.10;;;;;;;-0.75;44.23;96782.28;5047055;28;20134;-77
2023/02/08 07:55:57;;;;;;;24.52;12.98;;;;;;;-0.52;43.61;96778.28;5044539;28;20039;-77
2023/02/08 07:58:22;;;;;;;22.13;14.18;;;;;;;-0.20;43.12;96771.53;5063366;28;20040;-76
2023/02/08 08:00:48;;;;;;;25.40;12.95;;;;;;;0.02;42.86;96775.91;5063348;28;20032;-78
2023/02/08 08:03:13;;;;;;;22.75;14.13;;;;;;;0.20;42.46;96772.03;5062599;28;20028;-76
2023/02/08 08:05:40;;;;;;;24.02;13.18;;;;;;;0.49;41.86;96773.94;5063847;28;20027;-76
2023/02/08 08:08:06;;;;;;;22.60;12.32;;;;;;;0.79;41.08;96763.09;5049140;28;20059;-78
2023/02/08 08:10:32;;;;;;;25.70;12.77;;;;;;;0.99;40.45;96761.53;5066693;28;20100;-77
2023/02/08 08:12:57;;;;;;;19.13;12.55;;;;;;;1.16;40.10;96750.56;5067448;28;20080;-76
2023/02/08 08:15:22;;;;;;;23.65;12.98;;;;;;;1.45;40.03;96759.69;5055144;28;20029;-76
2023/02/08 08:17:48;;;;;;;23.40;13.45;;;;;;;1.80;39.36;96762.84;5048919;28;20515;-77
2023/02/08 08:20:13;;;;;;;21.60;13.02;;;;;;;2.11;38.72;96759.59;5066860;28;20547;-75
2023/02/08 08:22:38;;;;;;;26.23;13.40;;;;;;;2.50;37.89;96765.50;5065397;28;20068;-77
2023/02/08 08:25:04;;;;;;;25.17;13.25;;;;;;;2.70;37.85;96771.97;5067463;28;20035;-76
2023/02/08 08:27:30;;;;;;;20.38;11.40;;;;;;;3.10;36.62;96767.34;5049356;28;20100;-77
2023/02/08 08:29:55;;;;;;;19.83;12.65;;;;;;;3.47;36.27;96769.94;5065625;28;20407;-76
2023/02/08 08:32:20;;;;;;;18.25;12.07;;;;;;;3.78;35.71;96780.09;5068284;28;20028;-76
2023/02/08 08:34:46;;;;;;;23.10;12.88;;;;;;;4.27;33.61;96771.66;5066687;28;20029;-77
2023/02/08 08:37:11;;;;;;;21.95;13.07;;;;;;;4.60;33.07;96770.50;5067702;28;20029;-77
2023/02/08 08:39:37;;;;;;;22.98;13.20;;;;;;;4.83;33.66;96776.88;5064958;28;20032;-77
2023/02/08 08:42:03;;;;;;;20.10;13.57;;;;;;;5.20;32.81;96768.31;5067308;28;20020;-79
2023/02/08 08:44:28;;;;;;;25.02;13.85;;;;;;;5.56;32.43;96778.84;5069877;28;20040;-76
2023/02/08 08:46:55;;;;;;;23.23;13.05;;;;;;;5.95;31.68;96758.91;5065725;28;20028;-78
2023/02/08 08:49:22;;;;;;;21.98;13.73;;;;;;;6.47;30.87;96766.44;5065812;28;20491;-77
2023/02/08 08:51:48;;;;;;;22.42;14.25;;;;;;;6.94;29.79;96781.63;5047771;28;20043;-78
2023/02/08 08:54:13;;;;;;;24.25;14.35;;;;;;;7.39;28.51;96785.34;5066498;28;20020;-78
2023/02/08 08:56:38;;;;;;;22.52;13.55;;;;;;;7.92;28.74;96780.53;5063807;28;20111;-78
2023/02/08 08:59:04;;;;;;;21.95;13.90;;;;;;;8.62;27.88;96778.88;5065845;28;20105;-77
2023/02/08 09:01:29;;;;;;;23.27;13.95;;;;;;;9.14;26.49;96785.13;5065880;28;20055;-77
2023/02/08 09:03:55;;;;;;;24.92;15.65;;;;;;;9.87;26.44;96784.31;5066704;28;20445;-78
2023/02/08 09:06:20;;;;;;;26.67;14.45;;;;;;;10.59;24.26;96781.31;5066844;28;20547;-77
2023/02/08 09:08:46;;;;;;;24.40;14.63;;;;;;;11.08;24.70;96789.97;5064662;28;20120;-78
2023/02/08 09:11:13;;;;;;;21.63;13.43;;;;;;;11.80;23.45;96790.53;5065849;28;20457;-78
2023/02/08 09:13:39;;;;;;;23.10;14.18;;;;;;;12.38;21.50;96797.34;5065650;28;20032;-76
2023/02/08 09:16:12;;;;;;;25.23;14.20;;;;;;;13.09;21.74;96791.31;5053270;28;20223;-76
2023/02/08 09:18:37;;;;;;;22.15;13.80;;;;;;;13.82;20.75;96793.72;5063329;28;20439;-77
2023/02/08 09:21:14;;;;;;;21.80;15.10;;;;;;;14.85;20.15;96791.53;5048018;28;20027;-76
2023/02/08 09:23:40;;;;;;;21.08;13.65;;;;;;;15.98;18.69;96797.44;5064884;28;20098;-78
2023/02/08 09:26:09;;;;;;;20.52;14.20;;;;;;;17.87;17.30;96795.69;5063865;28;20021;-78
2023/02/08 09:28:35;;;;;;;22.90;14.25;;;;;;;19.51;15.52;96801.78;5065468;28;20024;-77
2023/02/08 09:31:07;;;;;;;18.13;12.88;;;;;;;;;;5065225;28;20443;-78
2023/02/08 09:33:33;;;;;;;17.73;13.25;;;;;;;21.26;13.69;96801.56;5066582;28;20052;-77
2023/02/08 09:35:58;;;;;;;20.55;13.63;;;;;;;22.41;13.15;96803.00;5064235;28;20119;-77
2023/02/08 09:38:23;;;;;;;22.23;14.57;;;;;;;22.10;13.23;96804.00;5065964;28;20441;-76
2023/02/08 09:41:01;;;;;;;18.52;14.10;;;;;;;22.58;12.43;96801.41;5066332;28;20111;-76
2023/02/08 09:43:35;;;;;;;18.08;13.73;;;;;;;23.55;11.94;96806.72;5068440;28;20188;-77
2023/02/08 09:46:31;;;;;;;15.60;12.65;;;;;;;24.59;11.20;96790.84;5067616;28;20111;-78
2023/02/08 09:48:59;;;;;;;18.38;13.65;;;;;;;25.53;10.63;96784.34;5060929;28;20387;-78
2023/02/08 09:51:44;;;;;;;18.33;12.63;;;;;;;25.86;9.94;96797.31;5064588;28;20020;-78
2023/02/08 09:54:21;;;;;;;18.77;11.88;;;;;;;26.54;10.16;96790.34;5067735;28;20047;-77
2023/02/08 09:56:47;;;;;;;15.05;11.55;;;;;;;24.45;10.33;96774.78;5063351;28;20025;-78
2023/02/08 09:59:16;;;;;;;14.18;11.98;;;;;;;25.45;9.71;96788.06;5048695;28;20395;-76
2023/02/08 10:01:41;;;;;;;19.75;12.70;;;;;;;24.71;10.35;96779.78;5063609;28;20479;-77
2023/02/08 10:04:31;;;;;;;17.10;12.32;;;;;;;22.82;11.36;96781.06;5047405;28;20082;-77
2023/02/08 10:06:57;;;;;;;14.27;11.93;;;;;;;22.71;11.62;96773.19;5066554;28;20028;-77
2023/02/08 10:09:25;;;;;;;14.85;11.60;;;;;;;22.95;11.41;96765.63;5050232;28;20746;-78
2023/02/08 10:11:59;;;;;;;13.77;10.05;;;;;;;23.09;11.08;96763.38;5067335;28;20075;-78
2023/02/08 10:14:55;;;;;;;14.25;11.45;;;;;;;23.92;10.54;96769.97;5066132;28;20110;-78
2023/02/08 10:17:39;;;;;;;17.52;10.60;;;;;;;21.22;11.85;96756.22;5064629;28;20043;-77
2023/02/08 10:20:32;;;;;;;11.93;9.48;;;;;;;21.11;11.46;96759.44;5067062;28;20024;-78
2023/02/08 10:23:03;;;;;;;11.32;7.63;;;;;;;17.85;13.83;96750.88;5064172;28;20049;-79
2023/02/08 10:25:45;;;;;;;11.07;8.43;;;;;;;20.32;12.24;96761.75;5063953;28;20407;-78
2023/02/08 10:28:19;;;;;;;12.18;8.98;;;;;;;22.37;11.13;96761.16;5063949;28;20031;-78
2023/02/08 10:31:02;;;;;;;13.05;8.77;;;;;;;22.83;10.82;96760.22;5063130;28;20497;-78
2023/02/08 10:33:36;;;;;;;10.00;8.32;;;;;;;23.79;10.50;96772.25;5064491;28;20067;-76
2023/02/08 10:36:06;;;;;;;11.55;8.52;;;;;;;24.71;9.91;96771.34;5063187;28;20452;-76
2023/02/08 10:38:32;;;;;;;11.30;8.23;;;;;;;22.10;10.86;96772.44;5069379;28;20032;-77
2023/02/08 10:41:00;;;;;;;18.50;10.45;;;;;;;24.44;10.36;96769.66;5069116;28;20352;-77
2023/02/08 10:43:35;;;;;;;11.73;8.25;;;;;;;23.87;10.45;96769.88;5066584;28;20027;-76
2023/02/08 10:46:26;;;;;;;9.88;8.23;;;;;;;25.12;9.61;96772.28;5068123;28;20032;-77
2023/02/08 10:49:15;;;;;;;11.52;9.20;;;;;;;25.83;9.59;96784.22;5063622;28;20435;-78
2023/02/08 10:51:41;;;;;;;16.45;9.95;;;;;;;23.61;10.12;96769.56;5068062;28;20033;-77
2023/02/08 10:54:11;;;;;;;13.60;9.45;;;;;;;20.20;12.34;96765.41;5068084;28;20024;-77
2023/02/08 10:56:59;;;;;;;16.10;11.25;;;;;;;19.43;13.07;96778.91;5066156;28;20032;-76
2023/02/08 10:59:29;;;;;;;14.00;10.75;;;;;;;17.76;14.40;96777.31;5051102;28;20032;-76
2023/02/08 11:01:55;;;;;;;17.15;11.68;;;;;;;17.90;14.52;96789.28;5064363;28;20032;-77
2023/02/08 11:04:20;;;;;;;13.32;11.70;;;;;;;17.36;15.10;96779.56;5064366;28;20399;-76
2023/02/08 11:06:47;;;;;;;15.50;10.95;;;;;;;16.68;15.27;96785.97;5046719;28;20032;-76
2023/02/08 11:09:30;;;;;;;30.88;15.95;;;;;;;18.92;13.96;96779.03;5046054;28;20102;-77
2023/02/08 11:12:00;;;;;;;16.67;11.40;;;;;;;16.93;15.58;96782.66;5064182;28;20197;-78
2023/02/08 11:14:30;;;;;;;14.43;10.50;;;;;;;16.77;15.64;96782.63;5062131;28;20025;-76
2023/02/08 11:16:57;;;;;;;15.63;10.95;;;;;;;14.90;16.81;96767.31;5063895;28;20021;-77
2023/02/08 11:19:45;;;;;;;21.27;11.63;;;;;;;14.19;17.70;96778.25;5045777;28;20451;-76
2023/02/08 11:22:18;;;;;;;13.77;9.68;;;;;;;14.13;17.72;96779.13;5064068;28;20048;-76
2023/02/08 11:24:49;;;;;;;;;;;;;;;13.63;18.16;96779.72;5047081;28;20116;-77
2023/02/08 11:27:27;;;;;;;12.88;9.60;;;;;;;16.17;16.09;96782.75;5061667;28;19912;-76
2023/02/08 11:30:08;;;;;;;14.48;9.73;;;;;;;16.20;16.41;96773.56;5064988;28;20044;-75